Time;durP1;ratioP1;P1;durP2;ratioP2;P2;SDS_P1;SDS_P2;PMS_P1;PMS_P2;Temp;Humidity;BMP_temperature;BMP_pressure;BME280_temperature;BME280_humidity;BME280_pressure;Samples;Min_cycle;Max_cycle;Signal;HPM_P1;HPM_P2
2023/03/24 00:01:22;;;;;;;1.17;0.90;;;;;;;;;;5040274;28;20202;-56
2023/03/24 00:03:50;;;;;;;1.20;1.10;;;;;;;;;;5028507;28;20192;-56
2023/03/24 00:06:17;;;;;;;1.42;0.95;;;;;;;;;;5044074;28;20565;-56
2023/03/24 00:08:46;;;;;;;1.05;0.90;;;;;;;;;;5040219;28;20457;-55
2023/03/24 00:11:13;;;;;;;1.00;0.90;;;;;;;;;;5029272;28;20215;-56
2023/03/24 00:13:39;;;;;;;1.13;0.80;;;;;;;;;;5036984;28;20195;-55
2023/03/24 00:16:06;;;;;;;1.10;1.00;;;;;;;;;;5022457;28;20459;-55
2023/03/24 00:18:32;;;;;;;2.05;0.90;;;;;;;;;;5039122;28;20563;-55
2023/03/24 00:20:59;;;;;;;1.10;1.00;;;;;;;;;;5034573;28;20214;-55
2023/03/24 00:23:25;;;;;;;1.15;1.10;;;;;;;;;;5042189;28;20194;-55
2023/03/24 00:26:05;;;;;;;1.27;1.00;;;;;;;;;;5046991;28;20183;-56
2023/03/24 00:28:32;;;;;;;1.23;0.93;;;;;;;;;;5029322;28;20231;-56
2023/03/24 00:30:58;;;;;;;1.00;0.95;;;;;;;;;;5033632;28;20274;-56
2023/03/24 00:33:24;;;;;;;0.80;0.80;;;;;;;;;;5040939;28;20187;-56
2023/03/24 00:35:51;;;;;;;1.27;1.00;;;;;;;;;;5035513;28;20443;-56
2023/03/24 00:38:18;;;;;;;1.13;1.02;;;;;;;;;;5036622;28;20199;-56
2023/03/24 00:40:45;;;;;;;1.27;1.17;;;;;;;;;;5043467;28;20184;-56
2023/03/24 00:43:12;;;;;;;1.48;1.20;;;;;;;;;;5036870;28;20262;-56
2023/03/24 00:45:44;;;;;;;1.55;1.05;;;;;;;;;;5035751;28;20180;-59
2023/03/24 00:48:10;;;;;;;0.90;0.90;;;;;;;;;;5037438;28;20218;-56
2023/03/24 00:50:36;;;;;;;1.10;1.10;;;;;;;;;;5054296;28;20209;-56
2023/03/24 00:53:02;;;;;;;0.80;0.80;;;;;;;;;;5026696;28;20575;-56
2023/03/24 00:55:28;;;;;;;0.88;0.88;;;;;;;;;;5026928;28;20196;-56
2023/03/24 00:57:54;;;;;;;1.20;1.00;;;;;;;;;;5025224;28;20372;-56
2023/03/24 01:00:24;;;;;;;0.82;0.82;;;;;;;;;;5033299;28;20189;-55
2023/03/24 01:02:52;;;;;;;1.65;1.20;;;;;;;;;;5032978;28;20245;-56
2023/03/24 01:05:19;;;;;;;1.42;1.00;;;;;;;;;;5030619;28;20199;-56
2023/03/24 01:07:45;;;;;;;0.80;0.80;;;;;;;;;;5037751;28;20266;-56
2023/03/24 01:10:12;;;;;;;1.27;1.10;;;;;;;;;;5034919;28;20460;-56
2023/03/24 01:12:39;;;;;;;2.00;1.08;;;;;;;;;;5026324;28;20180;-56
2023/03/24 01:15:09;;;;;;;0.88;0.88;;;;;;;;;;5028976;28;20229;-56
2023/03/24 01:17:35;;;;;;;1.98;1.20;;;;;;;;;;5038176;28;20193;-55
2023/03/24 01:20:06;;;;;;;1.38;1.17;;;;;;;;;;5047712;28;20445;-55
2023/03/24 01:22:36;;;;;;;1.42;1.30;;;;;;;;;;5042622;28;20183;-56
2023/03/24 01:25:03;;;;;;;1.35;1.05;;;;;;;;;;5034861;28;20490;-56
2023/03/24 01:27:29;;;;;;;1.17;1.00;;;;;;;;;;5028345;28;20182;-55
2023/03/24 01:29:58;;;;;;;1.33;0.90;;;;;;;;;;5034725;28;20171;-56
2023/03/24 01:32:24;;;;;;;1.20;1.10;;;;;;;;;;5032807;28;20180;-56
2023/03/24 01:34:50;;;;;;;1.05;0.95;;;;;;;;;;5037089;28;20187;-56
2023/03/24 01:37:16;;;;;;;1.52;1.10;;;;;;;;;;5033510;28;20212;-56
2023/03/24 01:39:42;;;;;;;0.85;0.80;;;;;;;;;;5035982;28;20183;-55
2023/03/24 01:42:16;;;;;;;1.00;1.00;;;;;;;;;;5046107;28;20293;-56
2023/03/24 01:44:42;;;;;;;1.40;1.00;;;;;;;;;;5042633;28;20170;-56
2023/03/24 01:47:08;;;;;;;1.20;1.10;;;;;;;;;;5031060;28;20175;-56
2023/03/24 01:49:50;;;;;;;1.10;1.00;;;;;;;;;;5044273;28;20492;-56
2023/03/24 01:52:18;;;;;;;1.10;1.10;;;;;;;;;;5029057;28;20184;-55
2023/03/24 01:54:50;;;;;;;0.80;0.80;;;;;;;;;;5050058;28;20190;-56
2023/03/24 01:57:36;;;;;;;0.95;0.93;;;;;;;;;;5015421;28;20192;-56
2023/03/24 02:00:09;;;;;;;1.10;1.00;;;;;;;;;;5017202;28;20266;-56
2023/03/24 02:02:35;;;;;;;1.50;1.20;;;;;;;;;;5025950;28;20238;-55
2023/03/24 02:05:07;;;;;;;1.05;0.95;;;;;;;;;;5033804;28;20221;-55
2023/03/24 02:07:51;;;;;;;1.30;1.00;;;;;;;;;;5027176;28;20181;-56
2023/03/24 02:10:17;;;;;;;1.20;1.10;;;;;;;;;;5018504;28;20187;-56
2023/03/24 02:12:43;;;;;;;1.17;1.08;;;;;;;;;;5018510;28;20188;-55
2023/03/24 02:15:10;;;;;;;0.95;0.95;;;;;;;;;;5019131;28;20277;-55
2023/03/24 02:17:47;;;;;;;1.02;0.95;;;;;;;;;;5018050;28;20238;-55
2023/03/24 02:20:32;;;;;;;1.45;1.20;;;;;;;;;;5015849;28;20192;-55
2023/03/24 02:23:17;;;;;;;1.98;0.90;;;;;;;;;;5018423;28;20182;-56
2023/03/24 02:26:05;;;;;;;1.23;1.08;;;;;;;;;;5015369;28;20251;-55
2023/03/24 02:28:42;;;;;;;0.90;0.90;;;;;;;;;;5018703;28;20299;-56
2023/03/24 02:31:10;;;;;;;1.30;1.20;;;;;;;;;;5019019;28;20785;-56
2023/03/24 02:33:55;;;;;;;1.25;1.00;;;;;;;;;;5018949;28;20191;-55
2023/03/24 02:36:41;;;;;;;0.90;0.90;;;;;;;;;;5020107;28;20194;-56
2023/03/24 02:39:21;;;;;;;0.90;0.90;;;;;;;;;;5018417;28;20251;-56
2023/03/24 02:42:06;;;;;;;1.30;1.20;;;;;;;;;;5024283;28;20267;-55
2023/03/24 02:44:51;;;;;;;1.27;1.10;;;;;;;;;;5016563;28;20457;-55
2023/03/24 02:47:31;;;;;;;1.15;1.05;;;;;;;;;;5017004;28;20295;-55
2023/03/24 02:50:08;;;;;;;1.27;0.98;;;;;;;;;;5019394;28;20184;-55
2023/03/24 02:52:36;;;;;;;1.33;1.23;;;;;;;;;;5015203;28;20249;-55
2023/03/24 02:55:07;;;;;;;1.17;1.00;;;;;;;;;;5016898;28;20469;-55
2023/03/24 02:57:36;;;;;;;0.98;0.98;;;;;;;;;;5020447;28;20196;-55
2023/03/24 03:00:17;;;;;;;0.90;0.90;;;;;;;;;;5020467;28;20185;-56
2023/03/24 03:02:50;;;;;;;1.08;1.08;;;;;;;;;;5019667;28;20172;-55
2023/03/24 03:05:27;;;;;;;1.20;1.10;;;;;;;;;;5019740;28;22178;-55
2023/03/24 03:07:54;;;;;;;1.27;1.17;;;;;;;;;;5041126;28;20266;-56
2023/03/24 03:10:23;;;;;;;1.20;1.10;;;;;;;;;;5047270;28;20179;-56
2023/03/24 03:12:52;;;;;;;1.05;1.00;;;;;;;;;;5033141;28;20189;-56
2023/03/24 03:15:20;;;;;;;1.00;0.90;;;;;;;;;;5044967;28;20236;-56
2023/03/24 03:17:57;;;;;;;1.20;1.10;;;;;;;;;;5032199;28;20447;-55
2023/03/24 03:20:24;;;;;;;0.88;0.88;;;;;;;;;;5038795;28;20225;-55
2023/03/24 03:22:52;;;;;;;2.05;1.20;;;;;;;;;;5054107;28;20186;-56
2023/03/24 03:25:21;;;;;;;1.00;0.90;;;;;;;;;;5048929;28;20187;-55
2023/03/24 03:27:48;;;;;;;1.25;1.15;;;;;;;;;;5032166;28;20429;-55
2023/03/24 03:30:20;;;;;;;1.05;0.82;;;;;;;;;;5035845;28;20213;-55
2023/03/24 03:32:53;;;;;;;1.00;0.88;;;;;;;;;;5043398;28;20188;-55
2023/03/24 03:35:35;;;;;;;1.00;1.00;;;;;;;;;;5034957;28;20179;-55
2023/03/24 03:38:14;;;;;;;1.08;0.93;;;;;;;;;;5044067;28;20210;-55
2023/03/24 03:40:50;;;;;;;1.10;1.00;;;;;;;;;;5042487;28;20559;-56
2023/03/24 03:43:16;;;;;;;0.90;0.90;;;;;;;;;;5029984;28;20185;-56
2023/03/24 03:45:42;;;;;;;1.00;1.00;;;;;;;;;;5034260;28;20386;-56
2023/03/24 03:48:08;;;;;;;1.00;0.90;;;;;;;;;;5036359;28;20550;-56
2023/03/24 03:50:34;;;;;;;1.00;1.00;;;;;;;;;;5042948;28;20179;-55
2023/03/24 03:53:00;;;;;;;1.00;0.90;;;;;;;;;;5043529;28;20207;-55
2023/03/24 03:55:26;;;;;;;0.85;0.85;;;;;;;;;;5045763;28;20290;-55
2023/03/24 03:57:53;;;;;;;1.00;1.00;;;;;;;;;;5038219;28;20835;-56
2023/03/24 04:00:21;;;;;;;1.00;1.00;;;;;;;;;;5042447;28;20571;-56
2023/03/24 04:02:47;;;;;;;1.63;1.15;;;;;;;;;;5026269;28;20184;-56
2023/03/24 04:05:20;;;;;;;0.77;0.77;;;;;;;;;;5029169;28;20191;-55
2023/03/24 04:08:03;;;;;;;0.90;0.90;;;;;;;;;;5027940;28;20196;-55
2023/03/24 04:10:35;;;;;;;0.90;0.90;;;;;;;;;;5042324;28;20206;-56
2023/03/24 04:13:20;;;;;;;1.25;1.10;;;;;;;;;;5042732;28;20726;-55
2023/03/24 04:15:49;;;;;;;1.30;1.20;;;;;;;;;;5033724;28;20571;-55
2023/03/24 04:18:18;;;;;;;1.00;1.00;;;;;;;;;;5042574;28;20485;-56
2023/03/24 04:20:48;;;;;;;1.67;1.17;;;;;;;;;;5036548;28;20218;-56
2023/03/24 04:23:25;;;;;;;1.00;1.00;;;;;;;;;;5038697;28;20176;-56
2023/03/24 04:25:57;;;;;;;1.13;1.02;;;;;;;;;;5031668;28;20180;-56
2023/03/24 04:28:42;;;;;;;0.90;0.90;;;;;;;;;;5038824;28;20266;-56
2023/03/24 04:31:15;;;;;;;1.13;1.02;;;;;;;;;;5045921;28;20194;-56
2023/03/24 04:33:49;;;;;;;1.27;1.10;;;;;;;;;;5040071;28;20176;-56
2023/03/24 04:36:41;;;;;;;1.13;1.00;;;;;;;;;;5038299;28;20238;-56
2023/03/24 04:39:07;;;;;;;1.10;1.00;;;;;;;;;;5042638;28;20203;-56
2023/03/24 04:41:36;;;;;;;1.15;1.05;;;;;;;;;;5044491;28;20266;-56
2023/03/24 04:44:02;;;;;;;1.10;1.00;;;;;;;;;;5028077;28;20203;-56
2023/03/24 04:46:28;;;;;;;1.08;1.08;;;;;;;;;;5037602;28;20558;-56
2023/03/24 04:48:54;;;;;;;1.90;1.10;;;;;;;;;;5034841;28;20309;-56
2023/03/24 04:51:21;;;;;;;1.05;0.98;;;;;;;;;;5036162;28;20194;-55
2023/03/24 04:53:47;;;;;;;0.95;0.90;;;;;;;;;;5038125;28;20180;-55
2023/03/24 04:56:31;;;;;;;1.10;1.10;;;;;;;;;;5042499;28;20195;-55
2023/03/24 04:58:57;;;;;;;0.80;0.80;;;;;;;;;;5033455;28;20209;-55
2023/03/24 05:01:24;;;;;;;2.42;1.00;;;;;;;;;;5033546;28;20183;-56
2023/03/24 05:03:52;;;;;;;1.17;0.95;;;;;;;;;;5048563;28;20187;-56
2023/03/24 05:06:17;;;;;;;1.40;1.30;;;;;;;;;;5034814;28;20171;-55
2023/03/24 05:08:43;;;;;;;1.00;1.00;;;;;;;;;;5035445;28;20733;-55
2023/03/24 05:11:10;;;;;;;4.70;1.73;;;;;;;;;;5038724;28;20202;-50
2023/03/24 05:13:36;;;;;;;11.98;3.53;;;;;;;;;;5035366;28;20175;-50
2023/03/24 05:16:01;;;;;;;11.90;3.42;;;;;;;;;;5042929;28;20192;-51
2023/03/24 05:18:27;;;;;;;9.65;3.47;;;;;;;;;;5038511;28;20206;-50
2023/03/24 05:20:53;;;;;;;9.98;3.30;;;;;;;;;;5031019;28;20187;-50
2023/03/24 05:23:19;;;;;;;15.85;4.03;;;;;;;;;;5032604;28;20180;-51
2023/03/24 05:25:46;;;;;;;10.70;3.45;;;;;;;;;;5034397;28;20586;-50
2023/03/24 05:28:12;;;;;;;10.73;3.85;;;;;;;;;;5033676;28;20187;-50
2023/03/24 05:30:38;;;;;;;6.40;3.20;;;;;;;;;;5041510;28;20225;-51
2023/03/24 05:33:04;;;;;;;16.67;3.67;;;;;;;;;;5040977;28;20222;-50
2023/03/24 05:35:30;;;;;;;11.25;3.13;;;;;;;;;;5025734;28;20183;-51
2023/03/24 05:37:56;;;;;;;12.32;3.75;;;;;;;;;;5034840;28;20572;-50
2023/03/24 05:40:23;;;;;;;8.13;3.40;;;;;;;;;;5042054;28;20214;-49
2023/03/24 05:42:49;;;;;;;10.60;3.30;;;;;;;;;;5033579;28;20184;-50
2023/03/24 05:45:16;;;;;;;7.63;3.00;;;;;;;;;;5026547;28;20808;-50
2023/03/24 05:47:42;;;;;;;8.68;3.38;;;;;;;;;;5023164;28;20254;-49
2023/03/24 05:50:08;;;;;;;6.68;2.65;;;;;;;;;;5036339;28;20267;-50
2023/03/24 05:52:34;;;;;;;9.20;2.78;;;;;;;;;;5028898;28;20436;-50
2023/03/24 05:55:00;;;;;;;8.68;2.60;;;;;;;;;;5030525;28;20191;-49
2023/03/24 05:57:29;;;;;;;6.35;2.67;;;;;;;;;;5033347;28;20211;-50
2023/03/24 05:59:55;;;;;;;7.32;2.55;;;;;;;;;;5031038;28;20262;-49
2023/03/24 06:02:21;;;;;;;6.32;2.60;;;;;;;;;;5029603;28;20279;-50
2023/03/24 06:04:47;;;;;;;6.50;2.47;;;;;;;;;;5024493;28;20679;-51
2023/03/24 06:07:14;;;;;;;5.32;2.20;;;;;;;;;;5040928;28;20186;-50
2023/03/24 06:09:49;;;;;;;7.35;2.70;;;;;;;;;;5035932;28;20183;-49
2023/03/24 06:12:15;;;;;;;5.38;2.60;;;;;;;;;;5030718;28;20258;-50
2023/03/24 06:14:41;;;;;;;6.45;2.65;;;;;;;;;;5038581;28;20211;-50
2023/03/24 06:17:07;;;;;;;3.70;2.00;;;;;;;;;;5046763;28;20562;-50
2023/03/24 06:19:37;;;;;;;7.68;2.45;;;;;;;;;;5035649;28;20238;-50
2023/03/24 06:22:03;;;;;;;5.90;2.25;;;;;;;;;;5029171;28;20246;-51
2023/03/24 06:24:29;;;;;;;3.47;2.25;;;;;;;;;;5032417;28;20478;-50
2023/03/24 06:27:00;;;;;;;6.13;2.10;;;;;;;;;;5029160;28;20184;-50
2023/03/24 06:29:26;;;;;;;5.28;2.47;;;;;;;;;;5032823;28;20268;-51
2023/03/24 06:31:52;;;;;;;3.60;1.92;;;;;;;;;;5040859;28;20279;-49
2023/03/24 06:34:18;;;;;;;5.78;1.95;;;;;;;;;;5041793;28;20183;-50
2023/03/24 06:36:44;;;;;;;3.72;2.03;;;;;;;;;;5021557;28;20223;-50
2023/03/24 06:39:10;;;;;;;2.80;1.73;;;;;;;;;;5041433;28;20789;-50
2023/03/24 06:41:36;;;;;;;6.13;1.90;;;;;;;;;;5046069;28;20177;-50
2023/03/24 06:44:02;;;;;;;3.55;2.13;;;;;;;;;;5032645;28;20494;-50
2023/03/24 06:46:28;;;;;;;3.17;2.10;;;;;;;;;;5037831;28;20184;-50
2023/03/24 06:48:54;;;;;;;3.38;2.08;;;;;;;;;;5044852;28;20179;-50
2023/03/24 06:51:20;;;;;;;3.55;1.95;;;;;;;;;;5033991;28;20183;-50
2023/03/24 06:53:46;;;;;;;4.45;1.95;;;;;;;;;;5033122;28;20543;-50
2023/03/24 06:56:17;;;;;;;3.70;1.85;;;;;;;;;;5044191;28;20220;-50
2023/03/24 06:58:46;;;;;;;3.33;1.73;;;;;;;;;;5036177;28;20204;-51
2023/03/24 07:01:13;;;;;;;3.92;2.15;;;;;;;;;;5036004;28;20222;-50
2023/03/24 07:03:41;;;;;;;2.83;1.80;;;;;;;;;;5047962;28;20673;-50
2023/03/24 07:06:08;;;;;;;4.07;2.00;;;;;;;;;;5037823;28;20208;-50
2023/03/24 07:08:34;;;;;;;2.72;1.60;;;;;;;;;;5045038;28;20411;-50
2023/03/24 07:11:01;;;;;;;2.63;1.50;;;;;;;;;;5041045;28;20587;-50
2023/03/24 07:13:27;;;;;;;2.70;1.83;;;;;;;;;;5044163;28;20175;-51
2023/03/24 07:15:53;;;;;;;3.13;1.80;;;;;;;;;;5031851;28;20188;-50
2023/03/24 07:18:19;;;;;;;2.28;1.67;;;;;;;;;;5047855;28;20207;-50
2023/03/24 07:20:45;;;;;;;2.85;1.45;;;;;;;;;;5041599;28;20192;-50
2023/03/24 07:23:12;;;;;;;2.75;1.88;;;;;;;;;;5047796;28;20191;-50
2023/03/24 07:25:39;;;;;;;2.60;1.45;;;;;;;;;;5028568;28;20220;-50
2023/03/24 07:28:05;;;;;;;4.50;1.98;;;;;;;;;;5051076;28;20495;-50
2023/03/24 07:30:31;;;;;;;2.22;1.55;;;;;;;;;;5040871;28;20178;-50
2023/03/24 07:33:00;;;;;;;5.38;1.80;;;;;;;;;;5038509;28;20240;-50
2023/03/24 07:35:26;;;;;;;4.30;2.03;;;;;;;;;;5031213;28;20211;-50
2023/03/24 07:37:52;;;;;;;3.75;1.58;;;;;;;;;;5036128;28;20629;-50
2023/03/24 07:40:18;;;;;;;2.25;1.45;;;;;;;;;;5035753;28;20263;-50
2023/03/24 07:42:44;;;;;;;2.97;1.50;;;;;;;;;;5034804;28;20212;-50
2023/03/24 07:45:11;;;;;;;2.58;1.30;;;;;;;;;;5032621;28;20242;-51
2023/03/24 07:47:37;;;;;;;3.75;1.80;;;;;;;;;;5036043;28;20566;-50
2023/03/24 07:50:08;;;;;;;1.63;1.38;;;;;;;;;;5036519;28;20191;-50
2023/03/24 07:52:34;;;;;;;2.85;1.73;;;;;;;;;;5037360;28;20218;-50
2023/03/24 07:55:00;;;;;;;2.05;1.60;;;;;;;;;;5035875;28;20518;-50
2023/03/24 07:57:26;;;;;;;2.50;1.85;;;;;;;;;;5027474;28;20183;-50
2023/03/24 07:59:52;;;;;;;4.30;1.80;;;;;;;;;;5029589;28;20245;-51
2023/03/24 08:02:19;;;;;;;2.50;1.80;;;;;;;;;;5039381;28;20187;-49
2023/03/24 08:04:45;;;;;;;2.63;1.73;;;;;;;;;;5040265;28;20183;-50
2023/03/24 08:07:12;;;;;;;1.83;1.48;;;;;;;;;;5029675;28;20271;-50
2023/03/24 08:09:38;;;;;;;2.15;1.60;;;;;;;;;;5033097;28;20267;-53
2023/03/24 08:12:04;;;;;;;3.05;1.75;;;;;;;;;;5028997;28;20203;-50
2023/03/24 08:14:30;;;;;;;2.58;1.58;;;;;;;;;;5040248;28;20193;-50
2023/03/24 08:16:56;;;;;;;1.80;1.40;;;;;;;;;;5036987;28;20190;-51
2023/03/24 08:19:22;;;;;;;3.78;1.70;;;;;;;;;;5038293;28;20216;-50
2023/03/24 08:21:48;;;;;;;1.40;1.30;;;;;;;;;;5036427;28;20183;-50
2023/03/24 08:24:14;;;;;;;1.65;1.50;;;;;;;;;;5031556;28;20185;-50
2023/03/24 08:26:41;;;;;;;1.48;1.30;;;;;;;;;;5033888;28;20436;-50
2023/03/24 08:29:07;;;;;;;2.75;1.35;;;;;;;;;;5028288;28;20176;-50
2023/03/24 08:31:34;;;;;;;2.80;1.40;;;;;;;;;;5021016;28;20195;-51
2023/03/24 08:34:00;;;;;;;2.05;1.80;;;;;;;;;;5034817;28;20516;-50
2023/03/24 08:36:26;;;;;;;2.50;1.52;;;;;;;;;;5026937;28;20195;-49
2023/03/24 08:38:54;;;;;;;1.40;1.30;;;;;;;;;;5051051;28;20198;-51
2023/03/24 08:41:20;;;;;;;2.15;1.40;;;;;;;;;;5037364;28;20179;-50
2023/03/24 08:43:46;;;;;;;2.30;1.52;;;;;;;;;;5036291;28;20334;-51
2023/03/24 08:46:14;;;;;;;1.80;1.48;;;;;;;;;;5033118;28;20180;-50
2023/03/24 08:48:40;;;;;;;2.60;1.45;;;;;;;;;;5035129;28;20597;-50
2023/03/24 08:51:09;;;;;;;1.77;1.40;;;;;;;;;;5034428;28;20217;-50
2023/03/24 08:53:35;;;;;;;2.10;1.45;;;;;;;;;;5036438;28;20289;-50
2023/03/24 08:56:01;;;;;;;1.70;1.30;;;;;;;;;;5026859;28;20196;-51
2023/03/24 08:58:27;;;;;;;1.92;1.38;;;;;;;;;;5027775;28;20466;-50
2023/03/24 09:00:53;;;;;;;2.05;1.30;;;;;;;;;;5029954;28;20199;-51
2023/03/24 09:03:21;;;;;;;1.38;1.27;;;;;;;;;;5033513;28;20190;-50
2023/03/24 09:05:47;;;;;;;1.63;1.30;;;;;;;;;;5029500;28;20180;-50
2023/03/24 09:08:14;;;;;;;1.52;1.25;;;;;;;;;;5032348;28;20275;-50
2023/03/24 09:10:40;;;;;;;1.88;1.63;;;;;;;;;;5019707;28;20323;-50
2023/03/24 09:13:06;;;;;;;1.35;1.25;;;;;;;;;;5026396;28;20199;-50
2023/03/24 09:15:32;;;;;;;2.85;1.35;;;;;;;;;;5026727;28;20192;-50
2023/03/24 09:17:58;;;;;;;1.42;1.33;;;;;;;;;;5016664;28;20195;-50
2023/03/24 09:20:25;;;;;;;1.67;1.13;;;;;;;;;;5023785;28;20610;-50
2023/03/24 09:22:51;;;;;;;1.35;1.25;;;;;;;;;;5031206;28;20554;-50
2023/03/24 09:25:18;;;;;;;1.30;1.15;;;;;;;;;;5031695;28;20179;-50
2023/03/24 09:27:45;;;;;;;1.75;1.40;;;;;;;;;;5022358;28;20176;-50
2023/03/24 09:30:12;;;;;;;1.40;1.30;;;;;;;;;;5031237;28;20246;-50
2023/03/24 09:32:38;;;;;;;1.27;1.17;;;;;;;;;;5029730;28;20172;-50
2023/03/24 09:35:06;;;;;;;1.45;1.30;;;;;;;;;;5030587;28;20206;-49
2023/03/24 09:37:32;;;;;;;1.30;1.20;;;;;;;;;;5032866;28;20222;-50
2023/03/24 09:40:00;;;;;;;0.98;0.98;;;;;;;;;;5029702;28;20454;-50
2023/03/24 09:42:28;;;;;;;2.08;1.30;;;;;;;;;;5028170;28;20228;-50
2023/03/24 09:44:55;;;;;;;1.42;1.20;;;;;;;;;;5044882;28;20482;-50
2023/03/24 09:47:26;;;;;;;1.02;1.02;;;;;;;;;;5041873;28;20182;-50
2023/03/24 09:49:53;;;;;;;1.10;1.00;;;;;;;;;;5035769;28;20229;-50
2023/03/24 09:52:22;;;;;;;1.00;0.98;;;;;;;;;;5042440;28;20495;-51
2023/03/24 09:54:48;;;;;;;1.30;1.20;;;;;;;;;;5038059;28;20179;-50
2023/03/24 09:57:30;;;;;;;1.40;1.10;;;;;;;;;;5042478;28;20190;-51
2023/03/24 09:59:56;;;;;;;1.30;1.20;;;;;;;;;;5049323;28;20473;-51
2023/03/24 10:02:22;;;;;;;1.10;1.10;;;;;;;;;;5034379;28;20184;-50
2023/03/24 10:04:49;;;;;;;1.25;1.02;;;;;;;;;;5041936;28;20555;-50
2023/03/24 10:07:34;;;;;;;0.95;0.85;;;;;;;;;;5032365;28;20179;-51
2023/03/24 10:10:00;;;;;;;0.80;0.80;;;;;;;;;;5050380;28;20418;-50
2023/03/24 10:12:34;;;;;;;1.15;1.05;;;;;;;;;;5048188;28;20337;-51
2023/03/24 10:15:05;;;;;;;1.30;1.20;;;;;;;;;;5037471;28;20288;-50
2023/03/24 10:17:38;;;;;;;0.98;0.90;;;;;;;;;;5042116;28;20221;-50
2023/03/24 10:20:23;;;;;;;0.90;0.90;;;;;;;;;;5041603;28;20494;-50
2023/03/24 10:22:49;;;;;;;1.83;0.98;;;;;;;;;;5040244;28;20190;-50
2023/03/24 10:25:24;;;;;;;1.75;1.00;;;;;;;;;;5045904;28;20180;-50
2023/03/24 10:27:57;;;;;;;0.82;0.82;;;;;;;;;;5043871;28;20174;-50
2023/03/24 10:30:35;;;;;;;1.05;0.95;;;;;;;;;;5032955;28;20179;-50
2023/03/24 10:33:01;;;;;;;2.15;1.17;;;;;;;;;;5023707;28;20195;-51
2023/03/24 10:35:30;;;;;;;1.00;1.00;;;;;;;;;;5029236;28;20208;-49
2023/03/24 10:37:57;;;;;;;1.02;0.93;;;;;;;;;;5047875;28;20352;-50
2023/03/24 10:40:29;;;;;;;1.90;1.15;;;;;;;;;;5028493;28;20184;-50
2023/03/24 10:42:56;;;;;;;1.00;0.90;;;;;;;;;;5028520;28;20439;-50
2023/03/24 10:45:26;;;;;;;0.93;0.93;;;;;;;;;;5040534;28;20259;-50
2023/03/24 10:47:54;;;;;;;1.20;1.10;;;;;;;;;;5036591;28;20192;-50
2023/03/24 10:50:23;;;;;;;1.27;0.98;;;;;;;;;;5042586;28;20183;-50
2023/03/24 10:52:51;;;;;;;0.85;0.80;;;;;;;;;;5034437;28;20196;-51
2023/03/24 10:55:18;;;;;;;0.80;0.80;;;;;;;;;;5033291;28;20263;-50
2023/03/24 10:57:49;;;;;;;0.82;0.82;;;;;;;;;;5030156;28;20175;-50
2023/03/24 11:00:18;;;;;;;0.68;0.68;;;;;;;;;;5031699;28;20178;-50
2023/03/24 11:02:44;;;;;;;1.10;0.82;;;;;;;;;;5048015;28;20267;-51
2023/03/24 11:05:09;;;;;;;0.80;0.80;;;;;;;;;;5030728;28;20222;-49
2023/03/24 11:07:37;;;;;;;0.88;0.88;;;;;;;;;;5030884;28;20561;-50
2023/03/24 11:10:07;;;;;;;0.65;0.65;;;;;;;;;;5043331;28;20194;-49
2023/03/24 11:12:37;;;;;;;0.90;0.75;;;;;;;;;;5036494;28;20175;-51
2023/03/24 11:15:15;;;;;;;0.73;0.73;;;;;;;;;;5032273;28;20212;-50
2023/03/24 11:17:41;;;;;;;0.70;0.70;;;;;;;;;;5030616;28;20175;-50
2023/03/24 11:20:15;;;;;;;1.08;1.00;;;;;;;;;;5038849;28;20188;-51
2023/03/24 11:22:43;;;;;;;0.70;0.70;;;;;;;;;;5035836;28;20210;-51
2023/03/24 11:25:12;;;;;;;0.70;0.70;;;;;;;;;;5035753;28;20184;-51
2023/03/24 11:27:41;;;;;;;0.70;0.70;;;;;;;;;;5028862;28;20201;-50
2023/03/24 11:30:12;;;;;;;1.20;0.80;;;;;;;;;;5027355;28;20180;-50
2023/03/24 11:32:38;;;;;;;1.17;1.10;;;;;;;;;;5032736;28;20183;-50
2023/03/24 11:35:10;;;;;;;0.57;0.57;;;;;;;;;;5037055;28;20180;-50
2023/03/24 11:37:37;;;;;;;0.60;0.60;;;;;;;;;;5037035;28;20183;-50
2023/03/24 11:40:12;;;;;;;0.80;0.80;;;;;;;;;;5045570;28;20300;-50
2023/03/24 11:42:57;;;;;;;0.88;0.88;;;;;;;;;;5042417;28;20175;-50
2023/03/24 11:45:25;;;;;;;0.90;0.90;;;;;;;;;;5029183;28;20198;-50
2023/03/24 11:47:53;;;;;;;0.80;0.80;;;;;;;;;;5032473;28;20208;-50
2023/03/24 11:50:27;;;;;;;0.90;0.90;;;;;;;;;;5028739;28;20430;-50
2023/03/24 11:53:03;;;;;;;0.82;0.82;;;;;;;;;;5030020;28;20501;-50
2023/03/24 11:55:33;;;;;;;0.70;0.70;;;;;;;;;;5030914;28;20180;-49
2023/03/24 11:58:01;;;;;;;0.73;0.73;;;;;;;;;;5030263;28;20204;-50
2023/03/24 12:00:36;;;;;;;0.98;0.95;;;;;;;;;;5039472;28;20187;-50
2023/03/24 12:03:25;;;;;;;0.63;0.60;;;;;;;;;;5032420;28;20504;-50
2023/03/24 12:05:58;;;;;;;0.70;0.70;;;;;;;;;;5023745;28;20172;-50
2023/03/24 12:08:35;;;;;;;1.20;0.82;;;;;;;;;;5035553;28;20202;-50
2023/03/24 12:11:24;;;;;;;0.90;0.90;;;;;;;;;;5030427;28;20622;-50
2023/03/24 12:13:50;;;;;;;0.85;0.80;;;;;;;;;;5031658;28;20451;-50
2023/03/24 12:16:21;;;;;;;0.68;0.68;;;;;;;;;;5030339;28;21514;-49
2023/03/24 12:18:59;;;;;;;0.82;0.82;;;;;;;;;;5038042;28;20207;-50
2023/03/24 12:21:43;;;;;;;0.75;0.75;;;;;;;;;;5030649;28;20238;-51
2023/03/24 12:24:21;;;;;;;1.92;0.80;;;;;;;;;;5051572;28;20217;-50
2023/03/24 12:26:49;;;;;;;0.73;0.73;;;;;;;;;;5044211;28;20198;-50
2023/03/24 12:29:37;;;;;;;1.08;0.77;;;;;;;;;;5035579;28;20199;-50
2023/03/24 12:32:03;;;;;;;0.80;0.80;;;;;;;;;;5029979;28;20190;-50
2023/03/24 12:34:29;;;;;;;0.77;0.77;;;;;;;;;;5044346;28;20191;-49
2023/03/24 12:36:58;;;;;;;0.68;0.68;;;;;;;;;;5031705;28;20191;-50
2023/03/24 12:39:31;;;;;;;0.80;0.80;;;;;;;;;;5032119;28;20588;-50
2023/03/24 12:41:57;;;;;;;0.70;0.70;;;;;;;;;;5023690;28;20441;-50
2023/03/24 12:44:30;;;;;;;0.90;0.80;;;;;;;;;;5041391;28;20274;-50
2023/03/24 12:47:08;;;;;;;0.70;0.60;;;;;;;;;;5034377;28;20179;-49
2023/03/24 12:49:42;;;;;;;0.77;0.77;;;;;;;;;;5037375;28;20265;-50
2023/03/24 12:52:18;;;;;;;0.90;0.70;;;;;;;;;;5033958;28;20561;-50
2023/03/24 12:54:54;;;;;;;0.80;0.80;;;;;;;;;;5023651;28;20187;-49
2023/03/24 12:57:23;;;;;;;0.80;0.80;;;;;;;;;;5024163;28;20195;-50
2023/03/24 12:59:56;;;;;;;0.60;0.60;;;;;;;;;;5037533;28;20221;-49
2023/03/24 13:02:36;;;;;;;0.60;0.60;;;;;;;;;;5025718;28;20215;-50
2023/03/24 13:05:05;;;;;;;1.10;0.80;;;;;;;;;;5041177;28;20512;-50
2023/03/24 13:07:38;;;;;;;1.33;0.90;;;;;;;;;;5037796;28;20176;-49
2023/03/24 13:10:05;;;;;;;0.95;0.73;;;;;;;;;;5035924;28;20191;-49
2023/03/24 13:12:42;;;;;;;1.00;0.90;;;;;;;;;;5032789;28;20173;-49
2023/03/24 13:15:11;;;;;;;0.80;0.80;;;;;;;;;;5040242;28;21794;-49
2023/03/24 13:18:03;;;;;;;0.85;0.70;;;;;;;;;;5043364;28;20274;-49
2023/03/24 13:20:33;;;;;;;0.98;0.80;;;;;;;;;;5035161;28;20184;-50
2023/03/24 13:23:03;;;;;;;0.80;0.80;;;;;;;;;;5040094;28;20194;-49
2023/03/24 13:25:37;;;;;;;0.77;0.70;;;;;;;;;;5032435;28;20250;-49
2023/03/24 13:28:07;;;;;;;0.77;0.77;;;;;;;;;;5033284;28;20468;-50
2023/03/24 13:30:34;;;;;;;0.70;0.70;;;;;;;;;;5034305;28;20192;-50
2023/03/24 13:33:07;;;;;;;0.75;0.75;;;;;;;;;;5037386;28;20180;-51
2023/03/24 13:35:52;;;;;;;0.70;0.70;;;;;;;;;;5029637;28;20278;-50
2023/03/24 13:38:22;;;;;;;0.70;0.70;;;;;;;;;;5031014;28;20566;-50
2023/03/24 13:40:51;;;;;;;0.70;0.70;;;;;;;;;;5036129;28;20455;-51
2023/03/24 13:43:19;;;;;;;0.63;0.63;;;;;;;;;;5041325;28;20176;-51
2023/03/24 13:45:47;;;;;;;0.60;0.60;;;;;;;;;;5031877;28;20272;-51
2023/03/24 13:48:13;;;;;;;0.60;0.60;;;;;;;;;;5028667;28;20203;-50
2023/03/24 13:50:40;;;;;;;0.85;0.85;;;;;;;;;;5031897;28;20226;-50
2023/03/24 13:53:12;;;;;;;0.70;0.70;;;;;;;;;;5033874;28;20259;-50
2023/03/24 13:55:39;;;;;;;0.80;0.70;;;;;;;;;;5033746;28;20306;-51
2023/03/24 13:58:12;;;;;;;0.55;0.55;;;;;;;;;;5029905;28;20203;-50
2023/03/24 14:00:57;;;;;;;1.27;0.80;;;;;;;;;;5031386;28;20280;-50
2023/03/24 14:03:33;;;;;;;1.20;0.82;;;;;;;;;;5020488;28;20176;-49
2023/03/24 14:06:03;;;;;;;0.85;0.85;;;;;;;;;;5021991;28;20822;-49
2023/03/24 14:08:43;;;;;;;0.50;0.50;;;;;;;;;;5037809;28;20176;-50
2023/03/24 14:11:27;;;;;;;0.70;0.70;;;;;;;;;;5036795;28;20441;-50
2023/03/24 14:13:53;;;;;;;0.75;0.60;;;;;;;;;;5025038;28;20227;-49
2023/03/24 14:16:27;;;;;;;0.60;0.60;;;;;;;;;;5027580;28;20176;-50
2023/03/24 14:19:07;;;;;;;0.98;0.63;;;;;;;;;;5028717;28;20211;-50
2023/03/24 14:21:35;;;;;;;1.83;0.65;;;;;;;;;;5031309;28;20263;-49
2023/03/24 14:24:03;;;;;;;1.77;0.70;;;;;;;;;;5033962;28;20520;-50
2023/03/24 14:26:32;;;;;;;0.63;0.63;;;;;;;;;;5038929;28;20171;-51
2023/03/24 14:28:59;;;;;;;0.60;0.60;;;;;;;;;;5023366;28;20179;-50
2023/03/24 14:31:28;;;;;;;1.75;0.60;;;;;;;;;;5029669;28;20598;-50
2023/03/24 14:34:01;;;;;;;0.50;0.50;;;;;;;;;;5044584;28;20432;-49
2023/03/24 14:36:43;;;;;;;0.80;0.80;;;;;;;;;;5025755;28;20458;-49
2023/03/24 14:39:24;;;;;;;2.78;1.15;;;;;;;;;;5018204;28;20262;-50
2023/03/24 14:41:51;;;;;;;0.82;0.82;;;;;;;;;;5021913;28;20199;-49
2023/03/24 14:44:36;;;;;;;0.45;0.45;;;;;;;;;;5042062;28;20484;-50
2023/03/24 14:47:03;;;;;;;0.77;0.68;;;;;;;;;;5030608;28;20203;-50
2023/03/24 14:49:31;;;;;;;0.80;0.68;;;;;;;;;;5041900;28;20578;-50
2023/03/24 14:51:58;;;;;;;1.08;0.70;;;;;;;;;;5030819;28;20263;-50
2023/03/24 14:54:36;;;;;;;0.55;0.55;;;;;;;;;;5041012;28;20183;-50
2023/03/24 14:57:02;;;;;;;0.85;0.68;;;;;;;;;;5037027;28;20214;-50
2023/03/24 14:59:38;;;;;;;0.70;0.60;;;;;;;;;;5042310;28;21325;-50